createdAt,value
2022-11-12T00:01:02.711Z,6.70
2022-11-12T00:03:50.117Z,7.30
2022-11-12T00:06:37.123Z,6.13
2022-11-12T00:09:24.193Z,6.70
2022-11-12T00:12:11.536Z,6.43
2022-11-12T00:14:58.614Z,6.07
2022-11-12T00:17:46.918Z,5.93
2022-11-12T00:20:34.029Z,6.10
2022-11-12T00:23:20.972Z,6.63
2022-11-12T00:26:08.190Z,6.50
2022-11-12T00:28:57.788Z,7.13
2022-11-12T00:31:45.088Z,7.10
2022-11-12T00:34:33.841Z,5.90
2022-11-12T00:37:23.307Z,5.80
2022-11-12T00:40:12.687Z,6.43
2022-11-12T00:43:00.348Z,7.53
2022-11-12T00:45:47.638Z,6.63
2022-11-12T00:48:35.003Z,5.83
2022-11-12T00:51:23.986Z,6.20
2022-11-12T00:54:11.452Z,5.97
2022-11-12T00:56:58.814Z,6.73
2022-11-12T00:59:45.784Z,7.00
2022-11-12T01:02:38.664Z,6.63
2022-11-12T01:05:30.117Z,6.47
2022-11-12T01:08:18.325Z,6.17
2022-11-12T01:11:10.641Z,6.07
2022-11-12T01:14:00.792Z,6.67
2022-11-12T01:16:48.195Z,6.80
2022-11-12T01:19:35.251Z,5.93
2022-11-12T01:22:22.889Z,6.73
2022-11-12T01:25:11.326Z,6.30
2022-11-12T01:28:00.148Z,6.00
2022-11-12T01:30:47.126Z,6.53
2022-11-12T01:33:34.162Z,5.60
2022-11-12T01:36:22.392Z,6.33
2022-11-12T01:39:10.821Z,7.43
2022-11-12T01:41:59.498Z,7.00
2022-11-12T01:44:47.786Z,6.93
2022-11-12T01:47:36.487Z,6.33
2022-11-12T01:50:28.692Z,5.87
2022-11-12T01:53:19.345Z,5.50
2022-11-12T01:56:08.036Z,5.90
2022-11-12T01:59:02.379Z,5.83
2022-11-12T02:01:49.631Z,6.17
2022-11-12T02:04:38.623Z,6.00
2022-11-12T02:07:27.066Z,5.87
2022-11-12T02:10:14.698Z,7.67
2022-11-12T02:13:19.830Z,6.00
2022-11-12T02:16:10.407Z,6.23
2022-11-12T02:18:57.195Z,6.00
2022-11-12T02:21:46.278Z,4.63
2022-11-12T02:24:37.143Z,6.20
2022-11-12T02:27:25.132Z,5.67
2022-11-12T02:30:13.588Z,5.93
2022-11-12T02:33:01.435Z,5.47
2022-11-12T02:35:48.967Z,5.67
2022-11-12T02:38:40.140Z,5.70
2022-11-12T02:41:27.273Z,5.77
2022-11-12T02:44:14.733Z,5.60
2022-11-12T02:47:01.908Z,5.17
2022-11-12T02:49:49.484Z,4.73
2022-11-12T02:52:37.186Z,6.53
2022-11-12T02:55:25.939Z,6.17
2022-11-12T02:58:12.873Z,5.50
2022-11-12T03:01:00.106Z,5.63
2022-11-12T03:03:47.354Z,5.93
2022-11-12T03:06:34.473Z,6.47
2022-11-12T03:09:22.086Z,5.87
2022-11-12T03:12:10.366Z,5.57
2022-11-12T03:14:58.123Z,6.30
2022-11-12T03:17:45.320Z,6.77
2022-11-12T03:20:35.036Z,7.23
2022-11-12T03:23:21.953Z,6.57
2022-11-12T03:26:09.180Z,6.70
2022-11-12T03:28:58.125Z,6.73
2022-11-12T03:31:45.214Z,6.23
2022-11-12T03:34:32.299Z,6.87
2022-11-12T03:37:19.657Z,5.87
2022-11-12T03:40:08.309Z,7.87
2022-11-12T03:42:55.626Z,6.70
2022-11-12T03:45:44.862Z,6.90
2022-11-12T03:48:32.827Z,8.40
2022-11-12T03:51:21.384Z,7.27
2022-11-12T03:54:08.729Z,7.97
2022-11-12T03:56:55.690Z,7.67
2022-11-12T03:59:42.422Z,7.27
2022-11-12T04:02:32.178Z,6.30
2022-11-12T04:05:36.897Z,7.53
2022-11-12T04:08:37.713Z,7.20
2022-11-12T04:11:25.089Z,7.33
2022-11-12T04:14:11.710Z,8.00
2022-11-12T04:17:16.574Z,8.73
2022-11-12T04:20:23.356Z,7.40
2022-11-12T04:23:10.196Z,6.73
2022-11-12T04:26:15.168Z,6.60
2022-11-12T04:29:20.159Z,6.97
2022-11-12T04:32:07.104Z,7.27
2022-11-12T04:34:54.681Z,8.30
2022-11-12T04:37:46.790Z,7.63
2022-11-12T04:40:51.455Z,6.37
2022-11-12T04:43:56.183Z,8.23
2022-11-12T04:46:44.380Z,9.17
2022-11-12T04:49:31.694Z,9.10
2022-11-12T04:52:19.247Z,7.77
2022-11-12T04:55:08.719Z,7.53
2022-11-12T04:58:00.392Z,9.20
2022-11-12T05:00:48.971Z,7.67
2022-11-12T05:03:36.181Z,7.63
2022-11-12T05:06:40.447Z,7.53
2022-11-12T05:09:29.493Z,8.23
2022-11-12T05:12:17.953Z,9.30
2022-11-12T05:15:05.383Z,8.50
2022-11-12T05:17:52.717Z,9.23
2022-11-12T05:20:39.839Z,9.73
2022-11-12T05:23:26.930Z,8.50
2022-11-12T05:26:13.761Z,9.30
2022-11-12T05:29:07.548Z,7.87
2022-11-12T05:31:56.578Z,9.47
2022-11-12T05:34:44.556Z,7.63
2022-11-12T05:37:31.780Z,7.33
2022-11-12T05:40:18.889Z,8.53
2022-11-12T05:43:06.134Z,8.40
2022-11-12T05:45:54.698Z,7.67
2022-11-12T05:48:41.904Z,8.83
2022-11-12T05:51:29.493Z,8.57
2022-11-12T05:54:16.492Z,8.17
2022-11-12T05:57:04.276Z,9.47
2022-11-12T05:59:51.398Z,9.20
2022-11-12T06:02:40.540Z,9.23
2022-11-12T06:05:27.696Z,8.53
2022-11-12T06:08:15.569Z,9.43
2022-11-12T06:11:04.217Z,11.40
2022-11-12T06:13:51.270Z,10.77
2022-11-12T06:16:38.073Z,9.33
2022-11-12T06:19:26.158Z,8.30
2022-11-12T06:22:13.243Z,7.80
2022-11-12T06:25:00.725Z,8.30
2022-11-12T06:27:47.906Z,7.77
2022-11-12T06:30:34.725Z,8.07
2022-11-12T06:33:22.187Z,9.23
2022-11-12T06:36:13.449Z,8.60
2022-11-12T06:39:00.417Z,9.47
2022-11-12T06:41:47.158Z,9.27
2022-11-12T06:44:34.514Z,10.17
2022-11-12T06:47:21.681Z,7.70
2022-11-12T06:50:08.837Z,8.50
2022-11-12T06:53:00.966Z,9.27
2022-11-12T06:55:48.694Z,8.50
2022-11-12T06:58:36.257Z,8.80
2022-11-12T07:01:23.757Z,8.37
2022-11-12T07:04:11.383Z,8.13
2022-11-12T07:06:58.532Z,8.73
2022-11-12T07:09:47.868Z,8.77
2022-11-12T07:12:35.118Z,8.30
2022-11-12T07:15:22.382Z,9.10
2022-11-12T07:18:09.752Z,7.23
2022-11-12T07:21:00.566Z,9.33
2022-11-12T07:23:48.526Z,8.20
2022-11-12T07:26:41.926Z,9.67
2022-11-12T07:29:46.894Z,8.90
2022-11-12T07:32:40.122Z,9.63
2022-11-12T07:35:30.488Z,9.37
2022-11-12T07:38:17.555Z,8.43
2022-11-12T07:41:06.202Z,6.73
2022-11-12T07:43:55.569Z,8.43
2022-11-12T07:46:42.469Z,8.53
2022-11-12T07:49:29.292Z,7.23
2022-11-12T07:52:16.308Z,10.80
2022-11-12T07:55:03.658Z,8.60
2022-11-12T07:57:50.797Z,8.73
2022-11-12T08:00:38.872Z,10.50
2022-11-12T08:03:26.286Z,11.77
2022-11-12T08:06:13.886Z,12.07
2022-11-12T08:09:03.242Z,12.57
2022-11-12T08:11:50.478Z,13.27
2022-11-12T08:14:37.652Z,12.83
2022-11-12T08:17:26.732Z,14.30
2022-11-12T08:20:14.686Z,13.23
2022-11-12T08:23:02.204Z,14.47
2022-11-12T08:25:49.525Z,16.33
2022-11-12T08:28:37.854Z,15.47
2022-11-12T08:31:27.238Z,14.70
2022-11-12T08:34:21.415Z,14.97
2022-11-12T08:37:09.859Z,15.97
2022-11-12T08:39:56.963Z,15.33
2022-11-12T08:42:44.300Z,14.80
2022-11-12T08:45:32.976Z,16.37
2022-11-12T08:48:20.456Z,14.50
2022-11-12T08:51:09.501Z,15.63
2022-11-12T08:53:57.041Z,14.87
2022-11-12T08:56:44.167Z,16.10
2022-11-12T08:59:31.395Z,15.43
2022-11-12T09:02:18.504Z,15.73
2022-11-12T09:05:06.865Z,14.97
2022-11-12T09:07:59.786Z,15.20
2022-11-12T09:10:47.897Z,14.13
2022-11-12T09:13:35.740Z,14.73
2022-11-12T09:16:24.320Z,13.60
2022-11-12T09:19:11.831Z,14.47
2022-11-12T09:21:58.969Z,14.47
2022-11-12T09:24:47.827Z,14.77
2022-11-12T09:27:35.124Z,12.27
2022-11-12T09:30:25.208Z,14.07
2022-11-12T09:33:12.966Z,13.87
2022-11-12T09:36:03.046Z,14.10
2022-11-12T09:38:49.879Z,13.93
2022-11-12T09:41:40.698Z,13.00
2022-11-12T09:44:30.675Z,11.33
2022-11-12T09:47:28.113Z,13.37
2022-11-12T09:50:21.831Z,12.37
2022-11-12T09:53:17.195Z,12.23
2022-11-12T09:56:08.523Z,12.70
2022-11-12T09:58:57.615Z,11.60
2022-11-12T10:01:54.258Z,10.63
2022-11-12T10:05:00.410Z,9.80
2022-11-12T10:07:58.487Z,13.20
2022-11-12T10:10:49.300Z,9.57
2022-11-12T10:13:53.432Z,10.70
2022-11-12T10:16:55.926Z,10.30
2022-11-12T10:19:58.313Z,9.73
2022-11-12T10:23:00.420Z,10.57
2022-11-12T10:25:50.551Z,10.67
2022-11-12T10:28:44.952Z,10.27
2022-11-12T10:31:32.176Z,9.47
2022-11-12T10:34:21.973Z,9.80
2022-11-12T10:37:16.292Z,10.13
2022-11-12T10:40:29.632Z,9.07
2022-11-12T10:43:24.784Z,10.03
2022-11-12T10:46:21.007Z,9.97
2022-11-12T10:49:25.785Z,8.93
2022-11-12T10:52:25.588Z,8.90
2022-11-12T10:55:18.473Z,8.67
2022-11-12T10:58:16.659Z,8.60
2022-11-12T11:01:05.793Z,7.73
2022-11-12T11:03:57.986Z,9.30
2022-11-12T11:06:45.852Z,7.43
2022-11-12T11:09:35.512Z,8.07
2022-11-12T11:12:28.283Z,8.50
2022-11-12T11:15:22.871Z,7.90
2022-11-12T11:18:13.002Z,7.67
2022-11-12T11:21:09.953Z,8.17
2022-11-12T11:23:59.873Z,7.87
2022-11-12T11:26:58.188Z,7.40
2022-11-12T11:30:06.069Z,7.83
2022-11-12T11:33:20.425Z,7.33
2022-11-12T11:36:19.297Z,7.73
2022-11-12T11:39:19.806Z,6.93
2022-11-12T11:42:24.201Z,7.17
2022-11-12T11:45:18.091Z,6.70
2022-11-12T11:48:17.040Z,6.90
2022-11-12T11:51:11.645Z,6.87
2022-11-12T11:54:11.183Z,7.43
2022-11-12T11:57:03.272Z,6.60
2022-11-12T12:00:06.778Z,6.67
2022-11-12T12:03:14.895Z,6.43
2022-11-12T12:06:11.494Z,7.43
2022-11-12T12:09:16.826Z,8.17
2022-11-12T12:12:10.805Z,7.27
2022-11-12T12:15:20.293Z,6.47
2022-11-12T12:18:17.211Z,6.70
2022-11-12T12:21:07.906Z,6.07
2022-11-12T12:24:01.119Z,6.17
2022-11-12T12:26:52.486Z,6.90
2022-11-12T12:29:44.652Z,7.07
2022-11-12T12:32:38.903Z,6.60
2022-11-12T12:35:30.244Z,7.20
2022-11-12T12:38:25.487Z,6.63
2022-11-12T12:41:21.038Z,6.80
2022-11-12T12:44:12.401Z,6.30
2022-11-12T12:47:03.650Z,6.17
2022-11-12T12:49:54.461Z,6.53
2022-11-12T12:53:01.459Z,6.13
2022-11-12T12:55:50.598Z,5.80
2022-11-12T12:58:45.277Z,6.10
2022-11-12T13:01:35.626Z,6.63
2022-11-12T13:04:55.158Z,6.50
2022-11-12T13:07:45.369Z,6.43
2022-11-12T13:10:54.038Z,6.80
2022-11-12T13:13:41.315Z,6.50
2022-11-12T13:16:58.228Z,5.53
2022-11-12T13:19:48.004Z,5.70
2022-11-12T13:22:51.757Z,6.13
2022-11-12T13:25:39.642Z,5.23
2022-11-12T13:28:26.868Z,5.87
2022-11-12T13:31:29.232Z,5.53
2022-11-12T13:34:23.010Z,5.37
2022-11-12T13:37:20.665Z,5.70
2022-11-12T13:40:15.954Z,6.00
2022-11-12T13:43:14.059Z,5.63
2022-11-12T13:46:24.133Z,5.77
2022-11-12T13:49:14.673Z,5.80
2022-11-12T13:52:02.145Z,4.97
2022-11-12T13:55:01.736Z,5.43
2022-11-12T13:57:54.829Z,5.40
2022-11-12T14:00:41.845Z,5.47
2022-11-12T14:03:32.716Z,5.07
2022-11-12T14:06:26.848Z,5.17
2022-11-12T14:09:32.575Z,5.53
2022-11-12T14:12:40.263Z,5.13
2022-11-12T14:15:43.836Z,5.27
2022-11-12T14:18:45.219Z,4.87
2022-11-12T14:21:32.617Z,5.00
2022-11-12T14:24:19.819Z,5.30
2022-11-12T14:27:06.977Z,5.47
2022-11-12T14:30:12.300Z,4.93
2022-11-12T14:33:09.171Z,4.90
2022-11-12T14:36:01.396Z,5.03
2022-11-12T14:38:52.277Z,5.00
2022-11-12T14:41:46.212Z,4.43
2022-11-12T14:44:37.155Z,4.73
2022-11-12T14:47:25.137Z,4.90
2022-11-12T14:50:18.355Z,5.27
2022-11-12T14:53:10.898Z,5.03
2022-11-12T14:56:00.407Z,4.80
2022-11-12T14:58:48.241Z,5.93
2022-11-12T15:04:47.128Z,6.13
2022-11-12T15:07:37.757Z,4.90
2022-11-12T15:10:34.692Z,4.63
2022-11-12T15:13:26.236Z,4.70
2022-11-12T15:16:21.766Z,5.20
2022-11-12T15:19:19.960Z,4.30
2022-11-12T15:22:07.375Z,3.90
2022-11-12T15:24:56.403Z,4.87
2022-11-12T15:27:44.196Z,4.63
2022-11-12T15:30:33.797Z,4.20
2022-11-12T15:33:24.462Z,4.73
2022-11-12T15:36:19.136Z,4.40
2022-11-12T15:39:15.178Z,3.70
2022-11-12T15:42:05.612Z,5.13
2022-11-12T15:44:53.327Z,4.17
2022-11-12T15:47:40.575Z,4.40
2022-11-12T15:50:28.341Z,4.77
2022-11-12T15:53:15.752Z,5.17
2022-11-12T15:56:03.488Z,5.03
2022-11-12T15:58:52.142Z,4.23
2022-11-12T16:01:39.286Z,5.57
2022-11-12T16:04:26.505Z,5.20
2022-11-12T16:07:13.561Z,5.10
2022-11-12T16:10:00.449Z,11.80
2022-11-12T16:12:49.061Z,23.00
2022-11-12T16:15:37.662Z,10.97
2022-11-12T16:18:24.931Z,7.37
2022-11-12T16:21:15.448Z,6.10
2022-11-12T16:24:05.405Z,7.80
2022-11-12T16:26:53.215Z,6.63
2022-11-12T16:29:40.190Z,6.50
2022-11-12T16:32:28.839Z,5.67
2022-11-12T16:35:16.419Z,5.97
2022-11-12T16:38:03.815Z,6.10
2022-11-12T16:40:50.942Z,5.70
2022-11-12T16:43:38.289Z,5.43
2022-11-12T16:46:29.634Z,5.83
2022-11-12T16:49:21.322Z,5.23
2022-11-12T16:52:10.707Z,4.50
2022-11-12T16:55:03.062Z,5.00
2022-11-12T16:57:51.660Z,4.80
2022-11-12T17:00:39.086Z,5.20
2022-11-12T17:03:26.452Z,5.13
2022-11-12T17:06:15.018Z,5.30
2022-11-12T17:09:02.169Z,4.60
2022-11-12T17:11:49.526Z,4.63
2022-11-12T17:14:36.919Z,5.17
2022-11-12T17:17:24.273Z,5.07
2022-11-12T17:20:12.029Z,6.20
2022-11-12T17:23:00.849Z,7.87
2022-11-12T17:25:47.899Z,7.03
2022-11-12T17:28:36.710Z,6.53
2022-11-12T17:31:25.012Z,7.57
2022-11-12T17:34:12.094Z,7.53
2022-11-12T17:36:59.320Z,7.60
2022-11-12T17:39:47.847Z,7.43
2022-11-12T17:42:34.871Z,6.87
2022-11-12T17:45:22.055Z,6.77
2022-11-12T17:48:09.120Z,7.03
2022-11-12T17:51:07.333Z,7.53
2022-11-12T17:53:54.808Z,6.43
2022-11-12T17:56:43.636Z,7.30
2022-11-12T17:59:30.989Z,8.33
2022-11-12T18:02:18.540Z,7.80
2022-11-12T18:05:06.499Z,7.00
2022-11-12T18:07:53.697Z,6.47
2022-11-12T18:10:42.908Z,7.37
2022-11-12T18:13:32.366Z,7.53
2022-11-12T18:16:21.129Z,6.73
2022-11-12T18:19:11.178Z,7.30
2022-11-12T18:21:59.924Z,7.03
2022-11-12T18:24:48.298Z,7.03
2022-11-12T18:27:35.157Z,7.77
2022-11-12T18:30:23.533Z,7.20
2022-11-12T18:33:10.555Z,7.77
2022-11-12T18:36:04.839Z,7.90
2022-11-12T18:38:52.666Z,7.23
2022-11-12T18:41:39.676Z,8.27
2022-11-12T18:44:26.981Z,8.73
2022-11-12T18:47:15.551Z,7.37
2022-11-12T18:50:08.253Z,10.03
2022-11-12T18:52:56.078Z,16.00
2022-11-12T18:55:43.198Z,18.77
2022-11-12T18:58:35.088Z,13.60
2022-11-12T19:01:24.484Z,15.40
2022-11-12T19:04:13.905Z,12.33
2022-11-12T19:07:01.952Z,11.97
2022-11-12T19:09:49.769Z,11.73
2022-11-12T19:12:37.205Z,10.13
2022-11-12T19:15:26.969Z,10.03
2022-11-12T19:18:15.744Z,8.70
2022-11-12T19:21:06.746Z,8.20
2022-11-12T19:23:55.378Z,8.03
2022-11-12T19:26:42.549Z,13.03
2022-11-12T19:29:31.066Z,12.60
2022-11-12T19:32:18.189Z,19.23
2022-11-12T19:35:05.714Z,16.53
2022-11-12T19:37:54.603Z,11.10
2022-11-12T19:40:41.445Z,9.10
2022-11-12T19:43:28.978Z,7.30
2022-11-12T19:46:16.537Z,6.90
2022-11-12T19:49:03.550Z,7.03
2022-11-12T19:51:50.469Z,6.33
2022-11-12T19:54:39.017Z,6.57
2022-11-12T19:57:27.276Z,6.27
2022-11-12T20:00:15.354Z,5.73
2022-11-12T20:03:02.784Z,6.27
2022-11-12T20:05:49.937Z,5.80
2022-11-12T20:08:37.681Z,5.97
2022-11-12T20:11:26.267Z,6.13
2022-11-12T20:14:13.227Z,7.83
2022-11-12T20:17:00.164Z,7.07
2022-11-12T20:19:47.413Z,6.80
2022-11-12T20:22:34.828Z,9.57
2022-11-12T20:25:22.149Z,12.50
2022-11-12T20:28:11.556Z,17.77
2022-11-12T20:31:03.650Z,8.00
2022-11-12T20:33:51.762Z,7.20
2022-11-12T20:36:38.937Z,6.33
2022-11-12T20:39:26.169Z,7.23
2022-11-12T20:42:13.654Z,6.13
2022-11-12T20:45:02.164Z,5.40
2022-11-12T20:47:49.022Z,6.13
2022-11-12T20:50:37.167Z,5.83
2022-11-12T20:53:24.663Z,5.40
2022-11-12T20:56:14.241Z,5.17
2022-11-12T20:59:02.001Z,5.27
2022-11-12T21:01:51.838Z,5.13
2022-11-12T21:04:39.623Z,5.53
2022-11-12T21:07:27.357Z,4.43
2022-11-12T21:10:14.703Z,5.47
2022-11-12T21:13:01.695Z,5.17
2022-11-12T21:15:51.368Z,5.43
2022-11-12T21:18:41.392Z,5.93
2022-11-12T21:21:31.655Z,5.30
2022-11-12T21:24:19.610Z,5.63
2022-11-12T21:27:06.946Z,7.07
2022-11-12T21:29:54.693Z,5.70
2022-11-12T21:32:41.909Z,7.63
2022-11-12T21:35:30.567Z,6.13
2022-11-12T21:38:18.035Z,6.37
2022-11-12T21:41:08.773Z,6.20
2022-11-12T21:43:57.422Z,5.47
2022-11-12T21:46:44.614Z,5.63
2022-11-12T21:49:34.570Z,5.57
2022-11-12T21:52:23.692Z,5.23
2022-11-12T21:55:11.685Z,6.03
2022-11-12T21:57:59.755Z,5.73
2022-11-12T22:00:46.887Z,5.97
2022-11-12T22:03:34.070Z,6.70
2022-11-12T22:06:23.931Z,6.70
2022-11-12T22:09:12.785Z,6.77
2022-11-12T22:11:59.949Z,6.80
2022-11-12T22:14:47.168Z,7.47
2022-11-12T22:17:36.007Z,6.97
2022-11-12T22:20:24.518Z,6.37
2022-11-12T22:23:11.665Z,6.20
2022-11-12T22:26:01.021Z,5.60
2022-11-12T22:28:48.553Z,6.50
2022-11-12T22:31:35.878Z,5.97
2022-11-12T22:34:22.948Z,6.67
2022-11-12T22:37:11.096Z,6.17
2022-11-12T22:39:58.516Z,6.00
2022-11-12T22:42:47.594Z,5.67
2022-11-12T22:45:36.678Z,6.00
2022-11-12T22:48:24.479Z,7.00
2022-11-12T22:51:15.047Z,6.07
2022-11-12T22:54:03.868Z,5.70
2022-11-12T22:56:51.122Z,5.50
2022-11-12T22:59:39.512Z,5.63
2022-11-12T23:02:26.942Z,6.13
2022-11-12T23:05:14.112Z,6.00
2022-11-12T23:08:01.771Z,6.73
2022-11-12T23:10:49.475Z,6.47
2022-11-12T23:13:37.585Z,6.70
2022-11-12T23:16:29.318Z,6.33
2022-11-12T23:19:16.752Z,7.37
2022-11-12T23:22:07.726Z,7.57
2022-11-12T23:24:56.420Z,6.00
2022-11-12T23:27:43.879Z,6.43
2022-11-12T23:30:31.355Z,6.80
2022-11-12T23:33:20.300Z,7.03
2022-11-12T23:36:09.378Z,6.07
2022-11-12T23:38:57.603Z,5.90
2022-11-12T23:41:45.013Z,6.03
2022-11-12T23:44:32.541Z,6.57
2022-11-12T23:47:19.621Z,6.57
2022-11-12T23:50:09.496Z,7.70
2022-11-12T23:52:56.852Z,6.73
2022-11-12T23:55:47.260Z,6.43
2022-11-12T23:58:37.788Z,6.30
